Latest Weather Observations for Adelaide Airport

IDS60801

Issued at 7:35 pm CST Sunday 31 August 2014 (issued every 30 minutes, with the page automatically refreshed every 10 minutes)

About weather observations | Map of weather stations | Latest weather observations for SA | Other Formats
Station Details ID: 023034 Name: ADELAIDE AIRPORT Lat: -34.95 Lon: 138.52 Height: 2.0 m
Data from the previous 72 hours. | See also: Recent months at Adelaide Airport
Date/Time
CST
Temp
°C
App
Temp
°C
Dew
Point
Rel
Hum
%
Delta-T
°C
Wind Press
QNH
hPa
Press
MSL
hPa
Rain
since 9 am
mm
Dir
 
Spd
km/h
Gust
km/h
Spd
kts
Gust
kts
31/07:30pm 17.0 14.6 7.2 52 4.9 W 9 15 5 8 1011.3 - 0.0
31/07:00pm 15.2 13.8 9.4 68 3.0 NNE 7 7 4 4 1010.5 - 0.0
31/06:30pm 17.3 14.5 8.5 56 4.5 WNW 13 17 7 9 1010.9 - 0.0
31/06:00pm 18.5 14.1 7.2 47 5.7 W 20 28 11 15 1010.7 1010.7 0.0
31/05:30pm 19.9 15.0 4.0 35 7.6 N 19 22 10 12 1010.0 - 0.0
31/05:00pm 21.4 15.8 1.4 26 9.2 N 20 30 11 16 1009.9 - 0.0
31/04:30pm 21.9 15.1 0.9 25 9.6 N 26 33 14 18 1009.5 - 0.0
31/04:00pm 21.9 13.7 0.6 24 9.7 N 33 39 18 21 1009.4 - 0.0
31/03:30pm 22.0 14.1 1.1 25 9.6 N 32 43 17 23 1009.7 - 0.0
31/03:00pm 21.8 14.9 2.5 28 9.1 N 28 39 15 21 1010.0 1010.0 0.0
31/02:30pm 21.6 15.1 0.3 24 9.6 N 24 32 13 17 1010.6 - 0.0
31/02:00pm 21.2 14.3 0.3 25 9.4 N 26 35 14 19 1011.4 - 0.0
31/01:30pm 21.5 13.3 0.1 24 9.6 N 33 46 18 25 1011.9 - 0.0
31/01:00pm 21.3 13.3 0.4 25 9.4 N 32 48 17 26 1012.3 - 0.0
31/12:30pm 22.2 14.2 0.4 23 9.9 N 32 48 17 26 1013.0 - 0.0
31/12:00pm 21.8 15.2 1.8 26 9.3 N 26 35 14 19 1013.9 1013.9 0.0
31/11:30am 20.0 13.5 0.5 27 8.7 N 24 35 13 19 1014.3 - 0.0
31/11:00am 19.6 12.8 0.8 28 8.4 N 26 37 14 20 1014.6 - 0.0
31/10:30am 19.3 12.7 -0.5 26 8.6 N 24 37 13 20 1015.0 - 0.0
31/10:00am 18.9 12.7 -0.1 28 8.3 N 22 32 12 17 1015.4 - 0.0
31/09:30am 17.1 10.4 1.2 34 7.0 NNE 26 33 14 18 1015.2 - 0.0
31/09:00am 17.1 11.4 0.6 32 7.2 NNE 20 32 11 17 1015.3 1015.3 0.0
31/08:30am 16.2 9.8 0.7 35 6.7 NNE 24 32 13 17 1015.4 - 0.0
31/08:00am 15.4 9.1 1.8 40 6.0 NNE 24 32 13 17 1015.6 - 0.0
31/07:30am 14.6 8.7 1.5 41 5.7 NNE 22 30 12 16 1015.7 - 0.0
31/07:00am 12.7 7.2 1.7 47 4.7 NNE 20 26 11 14 1015.6 - 0.0
31/06:30am 12.5 7.2 2.1 49 4.5 N 19 22 10 12 1015.7 - 0.0
31/06:00am 14.1 9.0 0.7 40 5.7 N 17 20 9 11 1015.5 1015.5 0.0
31/05:30am 12.1 7.1 1.5 48 4.5 NNE 17 19 9 10 1015.3 - 0.0
31/05:00am 12.4 7.9 1.9 48 4.5 NE 15 17 8 9 1015.4 - 0.0
31/04:30am 13.5 8.1 1.4 43 5.2 NE 19 24 10 13 1015.2 - 0.0
31/04:00am 11.7 6.6 3.0 55 3.8 NE 19 20 10 11 1015.1 - 0.0
31/03:30am 11.4 7.1 3.2 57 3.6 NE 15 17 8 9 1015.2 - 0.0
31/03:00am 11.5 6.7 2.7 54 3.8 NE 17 17 9 9 1015.4 1015.4 0.0
31/02:30am 10.8 6.0 2.7 57 3.5 NE 17 17 9 9 1015.8 - 0.0
31/02:00am 12.0 8.2 3.7 57 3.7 NNE 13 15 7 8 1016.2 - 0.0
31/01:30am 12.0 8.0 3.1 54 3.9 NE 13 15 7 8 1016.4 - 0.0
31/01:00am 10.4 7.0 3.8 63 2.9 NNE 11 13 6 7 1016.5 - 0.0
31/12:30am 12.1 8.7 3.8 57 3.7 NNE 11 13 6 7 1016.6 - 0.0
31/12:00am 13.0 9.1 3.6 53 4.2 NE 13 15 7 8 1016.8 1016.8 0.0
 
Date/Time
CST
Temp
°C
App
Temp
°C
Dew
Point
Rel
Hum
%
Delta-T
°C
Wind Press
QNH
hPa
Press
MSL
hPa
Rain
since 9 am
mm
Dir
 
Spd
km/h
Gust
km/h
Spd
kts
Gust
kts
30/11:30pm 13.2 8.6 3.9 53 4.2 NE 17 17 9 9 1017.0 - 0.0
30/11:00pm 12.7 8.2 4.3 56 3.8 NE 17 19 9 10 1017.3 - 0.0
30/10:30pm 14.0 9.5 4.4 52 4.4 NE 17 19 9 10 1017.7 - 0.0
30/10:00pm 14.2 10.2 4.7 53 4.4 NE 15 19 8 10 1018.0 - 0.0
30/09:30pm 14.8 11.1 4.7 51 4.7 NE 13 15 7 8 1018.2 - 0.0
30/09:00pm 14.2 10.5 4.7 53 4.4 NE 13 13 7 7 1018.4 1018.4 0.0
30/08:30pm 14.0 10.8 5.0 54 4.2 NE 11 11 6 6 1018.5 - 0.0
30/08:00pm 14.8 11.9 4.7 51 4.7 NE 9 11 5 6 1018.6 - 0.0
30/07:30pm 15.3 12.3 4.0 47 5.2 ENE 9 13 5 7 1018.7 - 0.0
30/07:00pm 15.9 12.8 3.7 44 5.6 NE 9 11 5 6 1018.6 - 0.0
30/06:30pm 15.9 12.5 4.0 45 5.5 NE 11 13 6 7 1018.7 - 0.0
30/06:00pm 17.9 15.2 3.8 39 6.6 N 7 9 4 5 1018.8 1018.8 0.0
30/05:30pm 19.2 15.8 4.0 36 7.2 NNW 11 13 6 7 1018.8 - 0.0
30/05:00pm 21.2 16.9 1.3 26 9.1 NNW 13 15 7 8 1018.7 - 0.0
30/04:30pm 22.1 16.6 0.4 23 9.8 NNW 19 26 10 14 1018.7 - 0.0
30/04:00pm 22.1 17.6 1.9 26 9.4 NW 15 19 8 10 1019.1 - 0.0
30/03:30pm 21.9 17.0 1.9 26 9.3 NW 17 22 9 12 1019.3 - 0.0
30/03:00pm 22.5 17.8 3.0 28 9.3 NW 17 24 9 13 1019.5 1019.5 0.0
30/02:30pm 22.4 17.5 1.7 25 9.6 NW 17 24 9 13 1019.7 - 0.0
30/02:00pm 21.5 16.7 4.7 33 8.2 WNW 19 24 10 13 1020.0 - 0.0
30/01:30pm 21.7 17.2 4.4 32 8.4 WNW 17 24 9 13 1020.4 - 0.0
30/01:00pm 21.4 16.8 5.7 36 7.8 WNW 19 26 10 14 1020.8 - 0.0
30/12:30pm 21.5 17.4 8.6 43 6.8 WNW 20 28 11 15 1021.3 - 0.0
30/12:00pm 22.4 18.2 5.6 33 8.4 NNW 17 26 9 14 1021.8 1021.8 0.0
30/11:30am 22.6 18.0 3.8 29 9.1 NNW 17 26 9 14 1022.2 - 0.0
30/11:00am 22.2 17.5 5.0 32 8.5 N 19 26 10 14 1022.5 - 0.0
30/10:30am 21.1 16.2 5.2 35 7.8 N 20 28 11 15 1022.8 - 0.0
30/10:00am 20.2 16.2 6.7 41 6.8 NNE 17 24 9 13 1023.1 - 0.0
30/09:30am 17.8 14.6 6.9 49 5.4 NNE 13 17 7 9 1023.3 - 0.0
30/09:00am 15.6 13.2 7.0 56 4.2 N 9 11 5 6 1023.5 1023.5 0.0
30/08:30am 14.2 11.8 7.0 62 3.5 NNW 9 11 5 6 1023.4 - 0.0
30/08:00am 12.4 10.4 7.2 70 2.5 NW 7 17 4 9 1023.3 - 0.0
30/07:30am 9.9 7.4 6.7 80 1.5 NE 9 9 5 5 1023.1 - 0.0
30/07:00am 9.0 6.6 5.2 77 1.7 E 7 9 4 5 1023.1 - 0.0
30/06:30am 7.6 4.4 4.9 83 1.2 NE 11 13 6 7 1023.1 - 0.0
30/06:00am 7.8 5.4 5.1 83 1.2 NE 7 9 4 5 1023.0 1023.0 0.0
30/05:30am 8.0 5.5 4.6 79 1.5 ENE 7 9 4 5 1023.2 - 0.0
30/05:00am 7.4 4.7 5.4 87 0.9 ENE 9 11 5 6 1023.3 - 0.0
30/04:30am 7.4 4.5 4.9 84 1.1 ENE 9 9 5 5 1023.3 - 0.0
30/04:00am 7.9 4.9 5.9 87 0.9 E 11 11 6 6 1023.3 - 0.0
30/03:30am 8.1 5.4 5.6 84 1.1 E 9 9 5 5 1023.1 - 0.0
30/03:00am 8.9 6.3 6.0 82 1.3 N 9 11 5 6 1023.1 1023.1 0.0
30/02:30am 9.6 7.0 6.3 80 1.5 NW 9 9 5 5 1023.2 - 0.0
30/02:00am 9.0 8.0 5.7 80 1.5 CALM 0 0 0 0 1023.3 - 0.0
30/01:30am 9.2 8.3 6.1 81 1.4 CALM 0 0 0 0 1023.7 - 0.0
30/01:00am 10.0 7.9 5.8 75 1.9 WNW 6 7 3 4 1023.9 - 0.0
30/12:30am 10.8 9.1 6.0 72 2.2 ENE 4 7 2 4 1023.9 - 0.0
30/12:00am 10.8 10.1 6.8 76 1.9 CALM 0 0 0 0 1024.1 1024.1 0.0
 
Date/Time
CST
Temp
°C
App
Temp
°C
Dew
Point
Rel
Hum
%
Delta-T
°C
Wind Press
QNH
hPa
Press
MSL
hPa
Rain
since 9 am
mm
Dir
 
Spd
km/h
Gust
km/h
Spd
kts
Gust
kts
29/11:30pm 11.5 10.8 6.9 73 2.2 CALM 0 0 0 0 1024.3 - 0.0
29/11:00pm 12.3 11.5 6.6 68 2.7 CALM 0 0 0 0 1024.4 - 0.0
29/10:30pm 14.2 11.7 6.7 60 3.6 NNW 9 11 5 6 1024.7 - 0.0
29/10:00pm 13.5 10.6 6.3 61 3.4 ENE 11 13 6 7 1024.8 - 0.0
29/09:30pm 12.4 9.1 6.5 67 2.8 E 13 15 7 8 1024.9 - 0.0
29/09:00pm 13.2 10.7 6.5 64 3.2 E 9 9 5 5 1025.0 - 0.0
29/08:30pm 13.6 11.8 7.0 64 3.2 E 6 7 3 4 1024.9 - 0.0
29/08:00pm 15.0 13.7 6.2 55 4.2 E 2 6 1 3 1024.8 - 0.0
29/07:30pm 15.4 12.9 6.5 55 4.3 SE 9 9 5 5 1024.8 - 0.0
29/07:00pm 17.0 14.0 4.1 42 6.0 S 9 11 5 6 1024.9 - 0.0
29/06:30pm 17.2 14.7 4.7 43 5.9 SSW 7 9 4 5 1024.8 - 0.0
29/06:00pm 19.1 16.1 4.1 37 7.1 SSW 9 9 5 5 1024.7 1024.7 0.0
29/05:30pm 19.3 16.9 5.3 39 6.8 SSW 7 9 4 5 1024.7 - 0.0
29/05:00pm 20.2 17.5 5.5 38 7.2 SW 9 11 5 6 1024.8 - 0.0
29/04:30pm 20.7 17.7 4.3 34 7.9 SW 9 11 5 6 1024.9 - 0.0
29/04:00pm 20.7 17.8 4.6 34 7.8 SW 9 13 5 7 1024.9 - 0.0
29/03:30pm 20.0 17.6 7.2 43 6.5 WSW 9 11 5 6 1025.0 - 0.0
29/03:00pm 19.6 17.1 8.4 48 5.8 WSW 11 13 6 7 1025.3 1025.3 0.0
29/02:30pm 18.5 16.1 8.8 53 5.0 WSW 11 15 6 8 1025.6 - 0.0
29/02:00pm 17.9 15.2 8.8 55 4.7 WSW 13 17 7 9 1025.9 - 0.0
29/01:30pm 17.0 14.1 9.7 62 3.8 WSW 15 17 8 9 1026.3 - 0.0
29/01:00pm 17.9 15.3 9.2 56 4.5 WSW 13 17 7 9 1026.6 - 0.0
29/12:30pm 17.3 13.8 8.9 57 4.3 WSW 17 19 9 10 1027.1 - 0.0
29/12:00pm 17.3 14.2 10.3 63 3.7 W 17 24 9 13 1027.6 1027.6 0.0
29/11:30am 19.2 16.3 9.5 53 5.1 N 15 19 8 10 1027.9 - 0.0
29/11:00am 22.3 18.0 5.1 32 8.5 N 17 22 9 12 1028.1 - 0.0
29/10:30am 20.7 18.4 7.4 42 6.8 N 9 11 5 6 1028.2 - 0.0
29/10:00am 18.2 16.7 8.4 52 5.0 N 6 9 3 5 1028.3 - 0.0
29/09:30am 16.6 15.2 9.0 61 3.9 NW 6 9 3 5 1028.5 - 0.0
29/09:00am 14.5 13.6 9.4 71 2.6 WSW 4 6 2 3 1028.6 1028.6 0.0
29/08:30am 12.0 11.7 8.8 81 1.6 CALM 0 0 0 0 1028.5 - 0.0
29/08:00am 10.8 9.1 8.3 84 1.2 E 7 7 4 4 1028.5 - 0.0
29/07:30am 8.7 6.7 7.2 90 0.7 NNE 7 7 4 4 1028.3 - 0.0
29/07:00am 7.1 4.4 5.7 91 0.6 NE 9 11 5 6 1028.2 - 0.0
29/06:30am 6.2 3.4 5.3 94 0.4 ENE 9 9 5 5 1028.0 - 0.0
29/06:00am 6.5 4.3 5.1 91 0.6 N 6 7 3 4 1027.8 1027.8 0.0
29/05:30am 7.7 5.5 6.4 91 0.6 N 7 9 4 5 1027.5 - 0.0
29/05:00am 7.1 5.0 5.7 91 0.6 E 6 6 3 3 1027.4 - 0.0
29/04:30am 7.5 5.4 5.9 90 0.7 SE 6 6 3 3 1027.3 - 0.0
29/04:00am 7.1 4.8 5.7 91 0.6 SSE 7 9 4 5 1027.4 - 0.0
29/03:30am 7.6 6.8 6.3 91 0.6 CALM 0 0 0 0 1027.2 - 0.0
29/03:00am 8.3 7.5 6.6 89 0.8 CALM 0 0 0 0 1027.3 1027.3 0.0
29/02:30am 8.6 7.8 6.4 86 1.0 CALM 0 0 0 0 1027.2 - 0.0
29/02:00am 8.3 7.4 6.1 86 1.0 CALM 0 0 0 0 1027.5 - 0.0
29/01:30am 9.6 7.5 6.8 83 1.3 NE 7 7 4 4 1027.6 - 0.0
29/01:00am 9.0 8.3 6.8 86 1.0 CALM 0 7 0 4 1027.6 - 0.0
29/12:30am 9.8 7.8 7.0 83 1.3 N 7 9 4 5 1027.8 - 0.0
29/12:00am 10.2 8.9 7.5 83 1.3 E 4 7 2 4 1027.8 1027.8 0.0
 
Date/Time
CST
Temp
°C
App
Temp
°C
Dew
Point
Rel
Hum
%
Delta-T
°C
Wind Press
QNH
hPa
Press
MSL
hPa
Rain
since 9 am
mm
Dir
 
Spd
km/h
Gust
km/h
Spd
kts
Gust
kts
28/11:30pm 10.5 8.5 7.3 80 1.5 ENE 7 9 4 5 1027.8 - 0.0
28/11:00pm 10.8 8.9 7.7 81 1.5 E 7 7 4 4 1027.8 - 0.0
28/10:30pm 11.8 10.0 7.9 77 1.9 E 7 9 4 5 1028.0 - 0.0
28/10:00pm 11.9 10.1 7.8 76 2.0 ESE 7 9 4 5 1028.1 - 0.0
28/09:30pm 12.8 12.4 8.1 73 2.3 CALM 0 4 0 2 1028.0 - 0.0
28/09:00pm 13.5 11.9 8.0 69 2.7 ESE 6 9 3 5 1028.0 1028.0 0.0
28/08:30pm 14.1 12.0 8.3 68 2.9 SE 9 13 5 7 1028.0 - 0.0
28/08:00pm 14.1 12.0 8.3 68 2.9 SE 9 11 5 6 1027.8 - 0.0

Other Formats:

Comma delimited format used in spreadsheet applications
http://www.bom.gov.au/fwo/IDS60801/IDS60801.94672.axf

JavaScript Object Notation format (JSON) in row-major order
http://www.bom.gov.au/fwo/IDS60801/IDS60801.94672.json